x

Smith Island, Wa (sisw1) Weather Station

3:00 - Fri 28th Jul 2017 All times are PDT. -7 hours from GMT.

  • Wind
    17mph, 20mph gusts
  • Ar Temp 53°f
  • Sea Pressure 1019.4mb
  • Smith Island, Wa
  • Smith Island, Wa

More Historic Weather Station data

Upgrade to MSW Pro to gain access to the past 30 days of data for over 8000 Wavebouys and Weather Stations around the globe.

Join Pro

Comparision Forecast

View Surf forecast
   
Sex 07/28 3:00 17 20 mph 1019.4mb 53f
2:00 17 20 mph 1019.3mb 54f
1:00 21 23 mph 1019.2mb 54f
12:00 20 21 mph 1019.1mb 54f
Qui 07/27 11:00 20 21 mph 1019.3mb 54f
10:00 17 18 mph 1019.5mb 54f
9:00 18 20 mph 1019.3mb 55f
8:00 16 17 mph 1019.5mb 56f
7:00 15 16 mph 1020mb 57f
6:00 7 9 mph 1020.5mb 58f
5:00 7 8 mph 1020.9mb 61f
4:00 6 7 mph 1021.4mb 60f
3:00 7 8 mph 1021.7mb 59f
2:00 6 8 mph 1021.8mb 60f
1:00 8 10 mph 1021.8mb 58f
12:00 13 13 mph 1021.7mb 58f
11:00 15 17 mph 1021.3mb 56f
10:00 20 25 mph 1021mb 55f
9:00 18 21 mph 1020.8mb 55f
8:00 20 22 mph 1020.4mb 55f
7:00 22 23 mph 1019.9mb 54f
6:00 22 24 mph 1019.4mb 54f
5:00 23 25 mph 1018.8mb 54f
4:00 28 31 mph 1018.2mb 54f
3:00 32 36 mph 1017.4mb 54f
2:00 26 33 mph 1017.4mb 54f
1:00 22 30 mph 1017mb 54f
12:00 30 38 mph 1016.8mb 54f
Qua 07/26 11:00 33 38 mph 1016.3mb 54f
10:00 36 39 mph 1015.9mb 54f
9:00 28 31 mph 1015.9mb 54f
8:00 21 23 mph 1016.6mb 55f
7:00 28 31 mph 1016.4mb 56f
6:00 28 37 mph 1016.5mb 57f
5:00 23 33 mph 1016.9mb 57f
4:00 25 28 mph 1017.8mb 57f
3:00 24 26 mph 1018.1mb 57f
2:00 25 26 mph 1018.6mb 58f
1:00 20 21 mph 1019mb 58f
12:00 20 22 mph 1019mb 56f
11:00 17 20 mph 1018.9mb 56f
10:00 16 18 mph 1019mb 53f
9:00 20 22 mph 1018.8mb 53f
8:00 23 25 mph 1018.7mb 52f
7:00 22 24 mph 1018.1mb 52f
6:00 17 20 mph 1017.9mb 52f
5:00 20 22 mph 1017.4mb 52f
4:00 15 17 mph 1017mb 52f
3:00 15 15 mph 1016.9mb 53f
2:00 10 13 mph 1017mb 53f
1:00 10 14 mph 1016.6mb 53f
12:00 13 18 mph 1016.5mb 53f
Ter 07/25 11:00 22 25 mph 1015.7mb 53f
10:00 24 32 mph 1015.4mb 54f
9:00 22 25 mph 1015.5mb 55f
8:00 13 16 mph 1015.9mb 56f
7:00 9 10 mph 1016mb 57f
6:00 15 16 mph 1016.2mb 57f
5:00 11 15 mph 1016.5mb 58f
4:00 7 8 mph 1016.7mb 60f
3:00 6 7 mph 1017mb 59f
2:00 5 6 mph 1017.3mb 60f
1:00 5 7 mph 1017.6mb 59f
12:00 5 6 mph 1017.7mb 60f
11:00 5 5 mph 1017.8mb 59f
10:00 6 6 mph 1017.8mb 57f
9:00 3 5 mph 1017.7mb 56f
8:00  -  1 mph 1017.5mb 55f
7:00 5 6 mph 1017.1mb 53f
6:00 7 7 mph 1016.9mb 52f
5:00 8 8 mph 1016.3mb 53f
4:00 6 6 mph 1016mb 53f
3:00 5 6 mph 1016mb 53f
2:00 5 5 mph 1015.8mb 54f
1:00 6 8 mph 1015.6mb 56f
12:00 6 7 mph 1015.4mb 55f
Seg 07/24 11:00 3 5 mph 1015.2mb 54f
10:00 6 7 mph 1015.1mb 54f
9:00 9 10 mph 1014.8mb 55f
8:00 13 15 mph 1014.6mb 56f
7:00 7 8 mph 1014.7mb 61f
6:00 2 2 mph 1014.8mb 64f
5:00 2 3 mph 1015.1mb 64f
4:00 6 7 mph 1015.6mb 64f
3:00 8 9 mph 1016.1mb 65f
2:00 3 6 mph 1016.6mb 64f
1:00 3 5 mph 1017.2mb 64f
12:00 6 6 mph 1017.6mb 60f